sensor_id;sensor_type;location;lat;lon;timestamp;P1;durP1;ratioP1;P2;durP2;ratioP2
7983;SDS011;4037;47.980;10.172;2023-03-31T00:01:27;8.83;;;6.43;;
7983;SDS011;4037;47.980;10.172;2023-03-31T00:03:54;12.50;;;6.30;;
7983;SDS011;4037;47.980;10.172;2023-03-31T00:06:30;8.17;;;5.13;;
7983;SDS011;4037;47.980;10.172;2023-03-31T00:08:56;9.03;;;5.47;;
7983;SDS011;4037;47.980;10.172;2023-03-31T00:11:26;8.13;;;5.27;;
7983;SDS011;4037;47.980;10.172;2023-03-31T00:13:52;10.57;;;6.57;;
7983;SDS011;4037;47.980;10.172;2023-03-31T00:16:18;10.17;;;5.87;;
7983;SDS011;4037;47.980;10.172;2023-03-31T00:18:45;7.80;;;5.10;;
7983;SDS011;4037;47.980;10.172;2023-03-31T00:21:22;8.30;;;5.57;;
7983;SDS011;4037;47.980;10.172;2023-03-31T00:23:52;10.53;;;5.60;;
7983;SDS011;4037;47.980;10.172;2023-03-31T00:26:18;8.43;;;5.20;;
7983;SDS011;4037;47.980;10.172;2023-03-31T00:28:44;9.00;;;5.50;;
7983;SDS011;4037;47.980;10.172;2023-03-31T00:31:10;7.37;;;5.40;;
7983;SDS011;4037;47.980;10.172;2023-03-31T00:33:36;8.93;;;5.83;;
7983;SDS011;4037;47.980;10.172;2023-03-31T00:36:02;10.73;;;5.80;;
7983;SDS011;4037;47.980;10.172;2023-03-31T00:38:30;7.97;;;5.73;;
7983;SDS011;4037;47.980;10.172;2023-03-31T00:40:56;9.47;;;6.23;;
7983;SDS011;4037;47.980;10.172;2023-03-31T00:43:26;8.10;;;5.60;;
7983;SDS011;4037;47.980;10.172;2023-03-31T00:46:04;6.83;;;5.17;;
7983;SDS011;4037;47.980;10.172;2023-03-31T00:48:31;8.07;;;5.77;;
7983;SDS011;4037;47.980;10.172;2023-03-31T00:50:58;6.90;;;5.50;;
7983;SDS011;4037;47.980;10.172;2023-03-31T00:53:28;9.70;;;4.87;;
7983;SDS011;4037;47.980;10.172;2023-03-31T00:55:56;8.20;;;5.27;;
7983;SDS011;4037;47.980;10.172;2023-03-31T00:58:23;5.97;;;4.93;;
7983;SDS011;4037;47.980;10.172;2023-03-31T01:00:52;9.47;;;5.30;;
7983;SDS011;4037;47.980;10.172;2023-03-31T01:03:19;9.70;;;5.77;;
7983;SDS011;4037;47.980;10.172;2023-03-31T01:05:53;9.60;;;5.30;;
7983;SDS011;4037;47.980;10.172;2023-03-31T01:08:22;8.83;;;5.17;;
7983;SDS011;4037;47.980;10.172;2023-03-31T01:10:59;10.57;;;6.43;;
7983;SDS011;4037;47.980;10.172;2023-03-31T01:13:25;6.37;;;5.27;;
7983;SDS011;4037;47.980;10.172;2023-03-31T01:15:52;8.93;;;5.40;;
7983;SDS011;4037;47.980;10.172;2023-03-31T01:18:18;8.93;;;5.40;;
7983;SDS011;4037;47.980;10.172;2023-03-31T01:31:36;7.33;;;5.43;;
7983;SDS011;4037;47.980;10.172;2023-03-31T01:50:28;9.00;;;4.90;;
7983;SDS011;4037;47.980;10.172;2023-03-31T01:52:57;8.27;;;5.87;;
7983;SDS011;4037;47.980;10.172;2023-03-31T01:55:27;7.17;;;5.50;;
7983;SDS011;4037;47.980;10.172;2023-03-31T01:58:09;8.40;;;4.93;;
7983;SDS011;4037;47.980;10.172;2023-03-31T02:00:49;8.17;;;4.97;;
7983;SDS011;4037;47.980;10.172;2023-03-31T02:03:21;6.30;;;5.40;;
7983;SDS011;4037;47.980;10.172;2023-03-31T02:05:55;8.13;;;5.80;;
7983;SDS011;4037;47.980;10.172;2023-03-31T02:08:28;10.07;;;5.50;;
7983;SDS011;4037;47.980;10.172;2023-03-31T02:10:55;7.43;;;5.93;;
7983;SDS011;4037;47.980;10.172;2023-03-31T02:13:22;6.53;;;5.43;;
7983;SDS011;4037;47.980;10.172;2023-03-31T02:15:53;7.83;;;5.33;;
7983;SDS011;4037;47.980;10.172;2023-03-31T02:18:22;6.47;;;5.63;;
7983;SDS011;4037;47.980;10.172;2023-03-31T02:20:50;6.80;;;5.33;;
7983;SDS011;4037;47.980;10.172;2023-03-31T02:23:18;8.80;;;5.57;;
7983;SDS011;4037;47.980;10.172;2023-03-31T02:25:48;10.77;;;5.93;;
7983;SDS011;4037;47.980;10.172;2023-03-31T02:28:18;10.40;;;5.43;;
7983;SDS011;4037;47.980;10.172;2023-03-31T02:30:55;7.83;;;5.43;;
7983;SDS011;4037;47.980;10.172;2023-03-31T02:33:23;7.63;;;5.73;;
7983;SDS011;4037;47.980;10.172;2023-03-31T02:35:49;6.70;;;5.10;;
7983;SDS011;4037;47.980;10.172;2023-03-31T02:38:16;8.30;;;5.37;;
7983;SDS011;4037;47.980;10.172;2023-03-31T02:40:42;7.57;;;6.07;;
7983;SDS011;4037;47.980;10.172;2023-03-31T02:43:08;7.93;;;5.40;;
7983;SDS011;4037;47.980;10.172;2023-03-31T02:45:47;8.00;;;5.70;;
7983;SDS011;4037;47.980;10.172;2023-03-31T02:48:17;6.83;;;5.40;;
7983;SDS011;4037;47.980;10.172;2023-03-31T02:54:19;8.80;;;5.30;;
7983;SDS011;4037;47.980;10.172;2023-03-31T03:01:49;8.10;;;5.63;;
7983;SDS011;4037;47.980;10.172;2023-03-31T03:09:26;10.67;;;5.33;;
7983;SDS011;4037;47.980;10.172;2023-03-31T03:15:00;6.07;;;4.63;;
7983;SDS011;4037;47.980;10.172;2023-03-31T03:17:29;8.33;;;5.03;;
7983;SDS011;4037;47.980;10.172;2023-03-31T03:20:00;8.73;;;5.90;;
7983;SDS011;4037;47.980;10.172;2023-03-31T03:22:27;8.30;;;4.90;;
7983;SDS011;4037;47.980;10.172;2023-03-31T03:24:54;8.23;;;5.50;;
7983;SDS011;4037;47.980;10.172;2023-03-31T03:27:20;8.23;;;5.03;;
7983;SDS011;4037;47.980;10.172;2023-03-31T03:29:46;11.37;;;5.70;;
7983;SDS011;4037;47.980;10.172;2023-03-31T03:32:12;9.83;;;5.87;;
7983;SDS011;4037;47.980;10.172;2023-03-31T03:34:39;7.17;;;5.17;;
7983;SDS011;4037;47.980;10.172;2023-03-31T03:37:05;11.03;;;5.90;;
7983;SDS011;4037;47.980;10.172;2023-03-31T03:39:31;8.80;;;5.53;;
7983;SDS011;4037;47.980;10.172;2023-03-31T03:41:57;11.23;;;6.10;;
7983;SDS011;4037;47.980;10.172;2023-03-31T03:44:23;9.87;;;5.80;;
7983;SDS011;4037;47.980;10.172;2023-03-31T03:46:49;8.80;;;5.80;;
7983;SDS011;4037;47.980;10.172;2023-03-31T03:49:15;8.47;;;6.40;;
7983;SDS011;4037;47.980;10.172;2023-03-31T03:51:41;10.30;;;5.60;;
7983;SDS011;4037;47.980;10.172;2023-03-31T03:54:07;9.20;;;5.47;;
7983;SDS011;4037;47.980;10.172;2023-03-31T03:56:33;9.87;;;6.47;;
7983;SDS011;4037;47.980;10.172;2023-03-31T03:58:59;10.67;;;6.40;;
7983;SDS011;4037;47.980;10.172;2023-03-31T04:01:25;7.97;;;5.77;;
7983;SDS011;4037;47.980;10.172;2023-03-31T04:03:51;9.90;;;6.03;;
7983;SDS011;4037;47.980;10.172;2023-03-31T04:06:17;8.53;;;5.87;;
7983;SDS011;4037;47.980;10.172;2023-03-31T04:08:43;6.43;;;5.07;;
7983;SDS011;4037;47.980;10.172;2023-03-31T04:11:11;8.57;;;6.00;;
7983;SDS011;4037;47.980;10.172;2023-03-31T04:13:38;9.17;;;6.23;;
7983;SDS011;4037;47.980;10.172;2023-03-31T04:16:05;7.23;;;5.60;;
7983;SDS011;4037;47.980;10.172;2023-03-31T04:18:31;9.80;;;5.53;;
7983;SDS011;4037;47.980;10.172;2023-03-31T04:20:57;11.27;;;5.97;;
7983;SDS011;4037;47.980;10.172;2023-03-31T04:23:32;9.83;;;5.40;;
7983;SDS011;4037;47.980;10.172;2023-03-31T04:25:58;7.67;;;5.87;;
7983;SDS011;4037;47.980;10.172;2023-03-31T04:28:25;7.57;;;5.67;;
7983;SDS011;4037;47.980;10.172;2023-03-31T04:30:58;8.43;;;5.57;;
7983;SDS011;4037;47.980;10.172;2023-03-31T04:33:24;5.90;;;5.20;;
7983;SDS011;4037;47.980;10.172;2023-03-31T04:35:50;8.10;;;5.80;;
7983;SDS011;4037;47.980;10.172;2023-03-31T04:38:23;7.90;;;5.53;;
7983;SDS011;4037;47.980;10.172;2023-03-31T04:40:51;14.67;;;5.73;;
7983;SDS011;4037;47.980;10.172;2023-03-31T04:43:18;9.40;;;5.47;;
7983;SDS011;4037;47.980;10.172;2023-03-31T04:45:47;7.13;;;5.40;;
7983;SDS011;4037;47.980;10.172;2023-03-31T04:48:13;8.53;;;6.23;;
7983;SDS011;4037;47.980;10.172;2023-03-31T04:50:39;12.03;;;6.50;;
7983;SDS011;4037;47.980;10.172;2023-03-31T04:53:05;11.10;;;6.53;;
7983;SDS011;4037;47.980;10.172;2023-03-31T04:55:31;10.57;;;6.10;;
7983;SDS011;4037;47.980;10.172;2023-03-31T04:57:57;9.37;;;5.70;;
7983;SDS011;4037;47.980;10.172;2023-03-31T05:00:23;10.07;;;5.73;;
7983;SDS011;4037;47.980;10.172;2023-03-31T05:02:50;10.90;;;5.40;;
7983;SDS011;4037;47.980;10.172;2023-03-31T05:05:16;6.90;;;5.93;;
7983;SDS011;4037;47.980;10.172;2023-03-31T05:07:42;11.27;;;6.30;;
7983;SDS011;4037;47.980;10.172;2023-03-31T05:10:08;10.70;;;6.10;;
7983;SDS011;4037;47.980;10.172;2023-03-31T05:12:35;8.10;;;6.17;;
7983;SDS011;4037;47.980;10.172;2023-03-31T05:15:02;8.30;;;6.27;;
7983;SDS011;4037;47.980;10.172;2023-03-31T05:17:30;14.37;;;6.57;;
7983;SDS011;4037;47.980;10.172;2023-03-31T05:19:57;10.03;;;6.27;;
7983;SDS011;4037;47.980;10.172;2023-03-31T05:22:23;12.30;;;6.53;;
7983;SDS011;4037;47.980;10.172;2023-03-31T05:24:49;7.90;;;6.67;;
7983;SDS011;4037;47.980;10.172;2023-03-31T05:27:15;10.83;;;6.80;;
7983;SDS011;4037;47.980;10.172;2023-03-31T05:29:41;10.80;;;7.70;;
7983;SDS011;4037;47.980;10.172;2023-03-31T05:32:08;13.57;;;7.13;;
7983;SDS011;4037;47.980;10.172;2023-03-31T05:34:34;11.10;;;7.27;;
7983;SDS011;4037;47.980;10.172;2023-03-31T05:37:00;11.03;;;7.77;;
7983;SDS011;4037;47.980;10.172;2023-03-31T05:39:26;11.10;;;7.20;;
7983;SDS011;4037;47.980;10.172;2023-03-31T05:41:57;13.97;;;8.10;;
7983;SDS011;4037;47.980;10.172;2023-03-31T05:44:23;15.53;;;7.90;;
7983;SDS011;4037;47.980;10.172;2023-03-31T05:46:49;13.23;;;7.57;;
7983;SDS011;4037;47.980;10.172;2023-03-31T05:49:15;9.53;;;7.47;;
7983;SDS011;4037;47.980;10.172;2023-03-31T05:51:41;12.03;;;7.77;;
7983;SDS011;4037;47.980;10.172;2023-03-31T05:54:07;11.47;;;8.10;;
7983;SDS011;4037;47.980;10.172;2023-03-31T05:56:33;13.63;;;8.47;;
7983;SDS011;4037;47.980;10.172;2023-03-31T05:58:59;17.47;;;9.53;;
7983;SDS011;4037;47.980;10.172;2023-03-31T06:01:26;13.60;;;8.30;;
7983;SDS011;4037;47.980;10.172;2023-03-31T06:03:53;12.40;;;7.73;;
7983;SDS011;4037;47.980;10.172;2023-03-31T06:06:19;15.67;;;7.33;;
7983;SDS011;4037;47.980;10.172;2023-03-31T06:08:46;13.77;;;7.27;;
7983;SDS011;4037;47.980;10.172;2023-03-31T06:11:16;10.97;;;7.43;;
7983;SDS011;4037;47.980;10.172;2023-03-31T06:13:43;7.67;;;6.77;;
7983;SDS011;4037;47.980;10.172;2023-03-31T06:16:10;11.10;;;6.03;;
7983;SDS011;4037;47.980;10.172;2023-03-31T06:18:36;9.77;;;7.07;;
7983;SDS011;4037;47.980;10.172;2023-03-31T06:21:03;11.53;;;6.40;;
7983;SDS011;4037;47.980;10.172;2023-03-31T06:23:29;11.13;;;6.40;;
7983;SDS011;4037;47.980;10.172;2023-03-31T06:25:59;9.50;;;6.30;;
7983;SDS011;4037;47.980;10.172;2023-03-31T06:28:25;6.83;;;6.00;;
7983;SDS011;4037;47.980;10.172;2023-03-31T06:30:58;11.87;;;7.63;;
7983;SDS011;4037;47.980;10.172;2023-03-31T06:33:24;11.67;;;7.10;;
7983;SDS011;4037;47.980;10.172;2023-03-31T06:35:50;9.80;;;7.43;;
7983;SDS011;4037;47.980;10.172;2023-03-31T06:38:16;9.77;;;7.63;;
7983;SDS011;4037;47.980;10.172;2023-03-31T06:40:42;8.37;;;6.37;;
7983;SDS011;4037;47.980;10.172;2023-03-31T06:43:08;8.50;;;6.93;;
7983;SDS011;4037;47.980;10.172;2023-03-31T06:45:35;14.13;;;9.10;;
7983;SDS011;4037;47.980;10.172;2023-03-31T06:48:01;11.93;;;7.77;;
7983;SDS011;4037;47.980;10.172;2023-03-31T06:50:27;9.63;;;7.90;;
7983;SDS011;4037;47.980;10.172;2023-03-31T06:52:53;9.50;;;7.63;;
7983;SDS011;4037;47.980;10.172;2023-03-31T06:55:19;12.43;;;8.13;;
7983;SDS011;4037;47.980;10.172;2023-03-31T06:57:45;9.30;;;7.63;;
7983;SDS011;4037;47.980;10.172;2023-03-31T07:00:12;10.77;;;7.50;;
7983;SDS011;4037;47.980;10.172;2023-03-31T07:02:38;7.97;;;6.87;;
7983;SDS011;4037;47.980;10.172;2023-03-31T07:05:04;9.10;;;6.23;;
7983;SDS011;4037;47.980;10.172;2023-03-31T07:07:31;9.33;;;7.10;;
7983;SDS011;4037;47.980;10.172;2023-03-31T07:09:57;11.03;;;7.40;;
7983;SDS011;4037;47.980;10.172;2023-03-31T07:12:23;9.37;;;7.50;;
7983;SDS011;4037;47.980;10.172;2023-03-31T07:14:50;9.93;;;7.90;;
7983;SDS011;4037;47.980;10.172;2023-03-31T07:17:16;12.67;;;8.23;;
7983;SDS011;4037;47.980;10.172;2023-03-31T07:19:42;8.23;;;7.30;;
7983;SDS011;4037;47.980;10.172;2023-03-31T07:22:12;8.97;;;6.50;;
7983;SDS011;4037;47.980;10.172;2023-03-31T07:24:38;9.90;;;6.00;;
7983;SDS011;4037;47.980;10.172;2023-03-31T07:27:04;7.03;;;5.50;;
7983;SDS011;4037;47.980;10.172;2023-03-31T07:29:30;8.60;;;5.80;;
7983;SDS011;4037;47.980;10.172;2023-03-31T07:31:56;6.83;;;4.90;;
7983;SDS011;4037;47.980;10.172;2023-03-31T07:34:22;5.33;;;4.20;;
7983;SDS011;4037;47.980;10.172;2023-03-31T07:36:49;8.77;;;4.23;;
7983;SDS011;4037;47.980;10.172;2023-03-31T07:39:15;6.70;;;4.87;;
7983;SDS011;4037;47.980;10.172;2023-03-31T07:41:41;5.73;;;4.80;;
7983;SDS011;4037;47.980;10.172;2023-03-31T07:44:07;4.93;;;4.13;;
7983;SDS011;4037;47.980;10.172;2023-03-31T07:46:33;5.53;;;3.23;;
7983;SDS011;4037;47.980;10.172;2023-03-31T07:48:59;5.30;;;3.30;;
7983;SDS011;4037;47.980;10.172;2023-03-31T07:51:27;4.23;;;3.10;;
7983;SDS011;4037;47.980;10.172;2023-03-31T07:53:53;8.63;;;3.50;;
7983;SDS011;4037;47.980;10.172;2023-03-31T07:56:19;6.67;;;3.70;;
7983;SDS011;4037;47.980;10.172;2023-03-31T07:58:46;6.50;;;3.80;;
7983;SDS011;4037;47.980;10.172;2023-03-31T08:01:15;4.70;;;3.47;;
7983;SDS011;4037;47.980;10.172;2023-03-31T08:03:42;6.83;;;4.40;;
7983;SDS011;4037;47.980;10.172;2023-03-31T08:06:08;5.67;;;3.60;;
7983;SDS011;4037;47.980;10.172;2023-03-31T08:08:34;5.90;;;4.03;;
7983;SDS011;4037;47.980;10.172;2023-03-31T08:11:02;7.37;;;3.87;;
7983;SDS011;4037;47.980;10.172;2023-03-31T08:13:28;4.20;;;3.80;;
7983;SDS011;4037;47.980;10.172;2023-03-31T08:15:54;7.30;;;3.93;;
7983;SDS011;4037;47.980;10.172;2023-03-31T08:18:20;3.40;;;2.67;;
7983;SDS011;4037;47.980;10.172;2023-03-31T08:20:46;2.73;;;2.47;;
7983;SDS011;4037;47.980;10.172;2023-03-31T08:23:14;3.47;;;2.33;;
7983;SDS011;4037;47.980;10.172;2023-03-31T08:25:40;3.73;;;2.20;;
7983;SDS011;4037;47.980;10.172;2023-03-31T08:28:06;3.47;;;2.40;;
7983;SDS011;4037;47.980;10.172;2023-03-31T08:30:36;2.27;;;2.00;;
7983;SDS011;4037;47.980;10.172;2023-03-31T08:33:03;2.37;;;2.10;;
7983;SDS011;4037;47.980;10.172;2023-03-31T08:35:29;3.60;;;2.13;;
7983;SDS011;4037;47.980;10.172;2023-03-31T08:37:55;3.90;;;2.60;;
7983;SDS011;4037;47.980;10.172;2023-03-31T08:40:22;4.40;;;2.67;;
7983;SDS011;4037;47.980;10.172;2023-03-31T08:42:49;8.20;;;2.90;;
7983;SDS011;4037;47.980;10.172;2023-03-31T08:45:35;4.63;;;2.50;;
7983;SDS011;4037;47.980;10.172;2023-03-31T08:48:03;4.57;;;2.30;;
7983;SDS011;4037;47.980;10.172;2023-03-31T08:50:31;6.10;;;2.60;;
7983;SDS011;4037;47.980;10.172;2023-03-31T08:53:01;3.60;;;2.60;;
7983;SDS011;4037;47.980;10.172;2023-03-31T08:55:47;3.67;;;2.53;;
7983;SDS011;4037;47.980;10.172;2023-03-31T09:00:45;4.40;;;2.70;;
7983;SDS011;4037;47.980;10.172;2023-03-31T09:03:25;2.97;;;2.40;;
7983;SDS011;4037;47.980;10.172;2023-03-31T09:06:13;3.87;;;2.30;;
7983;SDS011;4037;47.980;10.172;2023-03-31T09:08:42;3.63;;;2.67;;
7983;SDS011;4037;47.980;10.172;2023-03-31T09:14:09;3.30;;;2.53;;
7983;SDS011;4037;47.980;10.172;2023-03-31T09:19:27;4.70;;;2.70;;
7983;SDS011;4037;47.980;10.172;2023-03-31T09:21:55;5.80;;;2.43;;
7983;SDS011;4037;47.980;10.172;2023-03-31T09:24:31;5.80;;;2.90;;
7983;SDS011;4037;47.980;10.172;2023-03-31T09:27:00;4.23;;;2.73;;
7983;SDS011;4037;47.980;10.172;2023-03-31T09:31:53;4.73;;;2.70;;
7983;SDS011;4037;47.980;10.172;2023-03-31T09:34:24;4.07;;;3.40;;
7983;SDS011;4037;47.980;10.172;2023-03-31T09:36:51;7.03;;;3.57;;
7983;SDS011;4037;47.980;10.172;2023-03-31T09:39:17;3.77;;;2.67;;
7983;SDS011;4037;47.980;10.172;2023-03-31T09:41:44;4.80;;;2.47;;
7983;SDS011;4037;47.980;10.172;2023-03-31T09:44:19;5.63;;;2.80;;
7983;SDS011;4037;47.980;10.172;2023-03-31T09:46:46;5.37;;;2.50;;
7983;SDS011;4037;47.980;10.172;2023-03-31T09:49:13;7.00;;;3.07;;
7983;SDS011;4037;47.980;10.172;2023-03-31T09:51:41;3.37;;;2.57;;
7983;SDS011;4037;47.980;10.172;2023-03-31T09:54:15;7.67;;;2.97;;
7983;SDS011;4037;47.980;10.172;2023-03-31T09:56:45;7.13;;;2.87;;
7983;SDS011;4037;47.980;10.172;2023-03-31T09:59:32;3.50;;;2.50;;
7983;SDS011;4037;47.980;10.172;2023-03-31T10:01:59;5.43;;;3.10;;
7983;SDS011;4037;47.980;10.172;2023-03-31T10:04:43;3.23;;;2.30;;
7983;SDS011;4037;47.980;10.172;2023-03-31T10:07:10;5.07;;;2.90;;
7983;SDS011;4037;47.980;10.172;2023-03-31T10:09:36;5.43;;;2.53;;
7983;SDS011;4037;47.980;10.172;2023-03-31T10:12:07;4.67;;;2.70;;
7983;SDS011;4037;47.980;10.172;2023-03-31T10:17:05;4.73;;;2.50;;
7983;SDS011;4037;47.980;10.172;2023-03-31T10:19:32;6.47;;;2.90;;
7983;SDS011;4037;47.980;10.172;2023-03-31T10:22:00;6.03;;;2.47;;
7983;SDS011;4037;47.980;10.172;2023-03-31T10:24:35;2.63;;;2.23;;
7983;SDS011;4037;47.980;10.172;2023-03-31T10:27:01;5.57;;;2.50;;
7983;SDS011;4037;47.980;10.172;2023-03-31T10:29:31;4.23;;;2.33;;
7983;SDS011;4037;47.980;10.172;2023-03-31T10:32:01;4.70;;;2.20;;
7983;SDS011;4037;47.980;10.172;2023-03-31T10:34:28;5.97;;;2.40;;
7983;SDS011;4037;47.980;10.172;2023-03-31T10:36:54;3.70;;;2.30;;
7983;SDS011;4037;47.980;10.172;2023-03-31T10:39:20;2.47;;;2.07;;
7983;SDS011;4037;47.980;10.172;2023-03-31T10:41:53;3.17;;;2.00;;
7983;SDS011;4037;47.980;10.172;2023-03-31T10:44:30;4.33;;;2.60;;
7983;SDS011;4037;47.980;10.172;2023-03-31T10:46:56;5.07;;;2.80;;
7983;SDS011;4037;47.980;10.172;2023-03-31T10:49:27;2.27;;;1.90;;
7983;SDS011;4037;47.980;10.172;2023-03-31T10:51:54;4.47;;;1.97;;
7983;SDS011;4037;47.980;10.172;2023-03-31T10:54:21;4.30;;;1.60;;
7983;SDS011;4037;47.980;10.172;2023-03-31T10:56:48;2.17;;;1.70;;
7983;SDS011;4037;47.980;10.172;2023-03-31T11:07:12;2.63;;;1.70;;
7983;SDS011;4037;47.980;10.172;2023-03-31T11:12:27;2.90;;;1.90;;
7983;SDS011;4037;47.980;10.172;2023-03-31T11:15:03;4.13;;;2.30;;
7983;SDS011;4037;47.980;10.172;2023-03-31T11:35:19;4.03;;;2.33;;
7983;SDS011;4037;47.980;10.172;2023-03-31T11:45:15;5.10;;;1.70;;
7983;SDS011;4037;47.980;10.172;2023-03-31T11:47:43;6.07;;;1.80;;
7983;SDS011;4037;47.980;10.172;2023-03-31T11:50:15;3.27;;;1.33;;
7983;SDS011;4037;47.980;10.172;2023-03-31T11:52:44;3.77;;;1.87;;
7983;SDS011;4037;47.980;10.172;2023-03-31T11:55:14;3.27;;;2.17;;
7983;SDS011;4037;47.980;10.172;2023-03-31T11:57:41;5.40;;;2.27;;
7983;SDS011;4037;47.980;10.172;2023-03-31T12:00:16;3.90;;;1.80;;
7983;SDS011;4037;47.980;10.172;2023-03-31T12:02:46;7.27;;;2.10;;
7983;SDS011;4037;47.980;10.172;2023-03-31T12:05:13;3.47;;;1.90;;
7983;SDS011;4037;47.980;10.172;2023-03-31T12:07:47;3.20;;;1.67;;
7983;SDS011;4037;47.980;10.172;2023-03-31T12:12:54;4.40;;;1.70;;
7983;SDS011;4037;47.980;10.172;2023-03-31T12:15:22;1.93;;;1.60;;
7983;SDS011;4037;47.980;10.172;2023-03-31T12:18:00;2.37;;;1.13;;
7983;SDS011;4037;47.980;10.172;2023-03-31T12:22:54;2.77;;;1.30;;
7983;SDS011;4037;47.980;10.172;2023-03-31T12:25:21;2.27;;;1.40;;
7983;SDS011;4037;47.980;10.172;2023-03-31T12:27:50;1.83;;;1.30;;
7983;SDS011;4037;47.980;10.172;2023-03-31T12:32:49;2.93;;;1.20;;
7983;SDS011;4037;47.980;10.172;2023-03-31T12:41:06;1.47;;;1.20;;
7983;SDS011;4037;47.980;10.172;2023-03-31T12:46:27;4.80;;;1.47;;
7983;SDS011;4037;47.980;10.172;2023-03-31T12:53:25;2.43;;;1.33;;
7983;SDS011;4037;47.980;10.172;2023-03-31T12:55:55;4.40;;;1.80;;
7983;SDS011;4037;47.980;10.172;2023-03-31T13:01:12;4.37;;;1.50;;
7983;SDS011;4037;47.980;10.172;2023-03-31T13:06:54;5.13;;;1.57;;
7983;SDS011;4037;47.980;10.172;2023-03-31T13:11:41;1.63;;;1.10;;
7983;SDS011;4037;47.980;10.172;2023-03-31T13:14:12;3.50;;;1.20;;
7983;SDS011;4037;47.980;10.172;2023-03-31T13:16:40;1.30;;;1.20;;
7983;SDS011;4037;47.980;10.172;2023-03-31T13:19:06;3.93;;;1.53;;
7983;SDS011;4037;47.980;10.172;2023-03-31T13:24:20;4.73;;;2.27;;
7983;SDS011;4037;47.980;10.172;2023-03-31T13:26:46;5.00;;;1.60;;
7983;SDS011;4037;47.980;10.172;2023-03-31T13:34:31;4.60;;;2.20;;
7983;SDS011;4037;47.980;10.172;2023-03-31T13:49:59;3.83;;;1.40;;
7983;SDS011;4037;47.980;10.172;2023-03-31T13:52:35;2.83;;;1.40;;
7983;SDS011;4037;47.980;10.172;2023-03-31T14:10:21;4.73;;;1.30;;
7983;SDS011;4037;47.980;10.172;2023-03-31T14:12:47;3.83;;;1.00;;
7983;SDS011;4037;47.980;10.172;2023-03-31T14:15:16;2.17;;;1.37;;
7983;SDS011;4037;47.980;10.172;2023-03-31T14:17:43;3.83;;;1.50;;
7983;SDS011;4037;47.980;10.172;2023-03-31T14:27:38;3.70;;;1.33;;
7983;SDS011;4037;47.980;10.172;2023-03-31T14:38:10;2.37;;;1.17;;
7983;SDS011;4037;47.980;10.172;2023-03-31T14:40:46;3.47;;;1.60;;
7983;SDS011;4037;47.980;10.172;2023-03-31T14:43:31;4.43;;;1.43;;
7983;SDS011;4037;47.980;10.172;2023-03-31T14:46:07;2.17;;;1.20;;
7983;SDS011;4037;47.980;10.172;2023-03-31T14:48:34;3.57;;;1.50;;
7983;SDS011;4037;47.980;10.172;2023-03-31T14:51:07;3.83;;;1.50;;
7983;SDS011;4037;47.980;10.172;2023-03-31T14:53:34;2.40;;;1.80;;
7983;SDS011;4037;47.980;10.172;2023-03-31T14:56:04;3.83;;;1.43;;
7983;SDS011;4037;47.980;10.172;2023-03-31T14:58:33;2.63;;;1.63;;
7983;SDS011;4037;47.980;10.172;2023-03-31T15:01:00;3.70;;;1.60;;
7983;SDS011;4037;47.980;10.172;2023-03-31T15:03:27;3.50;;;1.77;;
7983;SDS011;4037;47.980;10.172;2023-03-31T15:05:57;2.67;;;1.70;;
7983;SDS011;4037;47.980;10.172;2023-03-31T15:08:23;3.33;;;1.77;;
7983;SDS011;4037;47.980;10.172;2023-03-31T15:10:53;4.57;;;1.40;;
7983;SDS011;4037;47.980;10.172;2023-03-31T15:13:32;3.33;;;1.27;;
7983;SDS011;4037;47.980;10.172;2023-03-31T15:16:02;2.97;;;1.40;;
7983;SDS011;4037;47.980;10.172;2023-03-31T15:18:43;5.10;;;1.30;;
7983;SDS011;4037;47.980;10.172;2023-03-31T15:21:18;2.23;;;1.33;;
7983;SDS011;4037;47.980;10.172;2023-03-31T15:23:45;3.17;;;1.80;;
7983;SDS011;4037;47.980;10.172;2023-03-31T15:26:11;3.03;;;2.00;;
7983;SDS011;4037;47.980;10.172;2023-03-31T15:29:00;3.33;;;1.90;;
7983;SDS011;4037;47.980;10.172;2023-03-31T15:31:28;4.03;;;1.80;;
7983;SDS011;4037;47.980;10.172;2023-03-31T15:33:54;3.00;;;1.77;;
7983;SDS011;4037;47.980;10.172;2023-03-31T15:36:21;4.00;;;2.03;;
7983;SDS011;4037;47.980;10.172;2023-03-31T15:38:52;3.53;;;1.60;;
7983;SDS011;4037;47.980;10.172;2023-03-31T15:41:20;3.17;;;2.10;;
7983;SDS011;4037;47.980;10.172;2023-03-31T15:43:47;3.27;;;2.00;;
7983;SDS011;4037;47.980;10.172;2023-03-31T15:46:18;3.87;;;1.80;;
7983;SDS011;4037;47.980;10.172;2023-03-31T15:48:51;5.70;;;2.23;;
7983;SDS011;4037;47.980;10.172;2023-03-31T15:51:20;3.67;;;2.47;;
7983;SDS011;4037;47.980;10.172;2023-03-31T15:53:49;2.30;;;1.57;;
7983;SDS011;4037;47.980;10.172;2023-03-31T15:56:24;3.17;;;1.30;;
7983;SDS011;4037;47.980;10.172;2023-03-31T15:58:57;1.60;;;1.00;;
7983;SDS011;4037;47.980;10.172;2023-03-31T16:01:26;2.73;;;1.10;;
7983;SDS011;4037;47.980;10.172;2023-03-31T16:03:54;1.10;;;1.00;;
7983;SDS011;4037;47.980;10.172;2023-03-31T16:06:34;3.00;;;1.40;;
7983;SDS011;4037;47.980;10.172;2023-03-31T16:09:07;2.60;;;1.10;;
7983;SDS011;4037;47.980;10.172;2023-03-31T16:11:39;0.83;;;0.83;;
7983;SDS011;4037;47.980;10.172;2023-03-31T16:14:18;1.30;;;1.20;;
7983;SDS011;4037;47.980;10.172;2023-03-31T16:17:04;2.03;;;1.30;;
7983;SDS011;4037;47.980;10.172;2023-03-31T16:19:37;2.47;;;1.23;;
7983;SDS011;4037;47.980;10.172;2023-03-31T16:22:06;1.10;;;1.00;;
7983;SDS011;4037;47.980;10.172;2023-03-31T16:24:36;0.97;;;0.80;;
7983;SDS011;4037;47.980;10.172;2023-03-31T16:27:03;0.90;;;0.90;;
7983;SDS011;4037;47.980;10.172;2023-03-31T16:29:33;3.30;;;1.03;;
7983;SDS011;4037;47.980;10.172;2023-03-31T16:32:08;2.77;;;1.20;;
7983;SDS011;4037;47.980;10.172;2023-03-31T16:34:39;1.53;;;1.03;;
7983;SDS011;4037;47.980;10.172;2023-03-31T16:37:15;1.20;;;1.10;;
7983;SDS011;4037;47.980;10.172;2023-03-31T16:39:41;1.10;;;1.00;;
7983;SDS011;4037;47.980;10.172;2023-03-31T16:42:07;1.20;;;1.10;;
7983;SDS011;4037;47.980;10.172;2023-03-31T16:44:33;2.60;;;1.20;;
7983;SDS011;4037;47.980;10.172;2023-03-31T16:46:59;1.00;;;0.90;;
7983;SDS011;4037;47.980;10.172;2023-03-31T16:49:25;2.27;;;1.10;;
7983;SDS011;4037;47.980;10.172;2023-03-31T16:51:51;1.20;;;1.03;;
7983;SDS011;4037;47.980;10.172;2023-03-31T16:54:17;1.83;;;1.30;;
7983;SDS011;4037;47.980;10.172;2023-03-31T16:56:43;1.23;;;1.13;;
7983;SDS011;4037;47.980;10.172;2023-03-31T16:59:11;2.73;;;1.43;;
7983;SDS011;4037;47.980;10.172;2023-03-31T17:01:37;2.47;;;2.17;;
7983;SDS011;4037;47.980;10.172;2023-03-31T17:04:03;2.20;;;1.43;;
7983;SDS011;4037;47.980;10.172;2023-03-31T17:06:29;8.17;;;4.70;;
7983;SDS011;4037;47.980;10.172;2023-03-31T17:08:55;7.97;;;3.80;;
7983;SDS011;4037;47.980;10.172;2023-03-31T17:11:22;16.57;;;10.77;;
7983;SDS011;4037;47.980;10.172;2023-03-31T17:13:48;7.50;;;3.80;;
7983;SDS011;4037;47.980;10.172;2023-03-31T17:16:14;2.87;;;2.63;;
7983;SDS011;4037;47.980;10.172;2023-03-31T17:18:41;1.23;;;1.10;;
7983;SDS011;4037;47.980;10.172;2023-03-31T17:21:11;1.83;;;1.20;;
7983;SDS011;4037;47.980;10.172;2023-03-31T17:23:37;2.63;;;1.63;;
7983;SDS011;4037;47.980;10.172;2023-03-31T17:26:04;4.03;;;2.40;;
7983;SDS011;4037;47.980;10.172;2023-03-31T17:28:33;2.77;;;2.30;;
7983;SDS011;4037;47.980;10.172;2023-03-31T17:30:59;2.37;;;1.60;;
7983;SDS011;4037;47.980;10.172;2023-03-31T17:33:26;2.57;;;1.33;;
7983;SDS011;4037;47.980;10.172;2023-03-31T17:35:58;2.00;;;1.50;;
7983;SDS011;4037;47.980;10.172;2023-03-31T17:38:25;3.17;;;1.40;;
7983;SDS011;4037;47.980;10.172;2023-03-31T17:40:51;1.50;;;1.40;;
7983;SDS011;4037;47.980;10.172;2023-03-31T17:43:18;1.63;;;1.53;;
7983;SDS011;4037;47.980;10.172;2023-03-31T17:45:44;1.97;;;1.30;;
7983;SDS011;4037;47.980;10.172;2023-03-31T17:48:10;3.07;;;1.30;;
7983;SDS011;4037;47.980;10.172;2023-03-31T17:50:36;2.30;;;1.40;;
7983;SDS011;4037;47.980;10.172;2023-03-31T17:53:02;2.47;;;1.43;;
7983;SDS011;4037;47.980;10.172;2023-03-31T17:55:34;2.20;;;1.27;;
7983;SDS011;4037;47.980;10.172;2023-03-31T17:58:00;2.43;;;1.20;;
7983;SDS011;4037;47.980;10.172;2023-03-31T18:00:26;1.70;;;1.03;;
7983;SDS011;4037;47.980;10.172;2023-03-31T18:02:52;2.10;;;1.10;;